Terminal Aerodrome Forecast
Issued by NWS Riverton, WY

Current Version | Previous Version | Text Only | Print | Product List | Glossary On
Versions: 1 2 3 4 5 6 7 8 9 10 11 12 13 14 15 16 17 18
000
FTUS45 KRIW 221700
TAFRIW
TAF
KRIW 221720Z 2218/2318 30011KT P6SM -SHSN SCT015 BKN035 BKN090
      TEMPO 2218/2222 30011G25KT 2SM -SHSN SCT015 BKN025 OVC050
     FM222200 35010KT P6SM VCSH SCT025 BKN040
     FM230300 31013KT P6SM SCT060=

USA.gov is the U.S. government's official web portal to all federal, state and local government web resources and services.